Time,TemperatureF,DewpointF,PressureIn,WindDirection,WindDirectionDegrees,WindSpeedMPH,WindSpeedGustMPH,Humidity,HourlyPrecipIn,Conditions,Clouds,dailyrainin,SoftwareType,DateUTC
2013-03-12 00:14:00,40.2,37.0,30.07,NW,314,0.0,0.0,88,0.00,,,0.00,weatherlink.com 1.10,2013-03-12 05:14:00,
2013-03-12 00:29:00,39.9,37.0,30.07,NW,314,0.0,0.0,88,0.00,,,0.00,weatherlink.com 1.10,2013-03-12 05:29:00,
2013-03-12 00:44:00,39.8,37.0,30.07,NW,314,0.0,0.0,89,0.00,,,0.00,weatherlink.com 1.10,2013-03-12 05:44:00,
2013-03-12 00:59:00,39.1,37.0,30.08,NW,314,0.0,0.0,90,0.00,,,0.00,weatherlink.com 1.10,2013-03-12 05:59:00,
2013-03-12 01:14:00,39.2,37.0,30.07,NW,313,0.0,0.0,91,0.00,,,0.00,weatherlink.com 1.10,2013-03-12 06:14:00,
2013-03-12 01:29:00,38.7,36.0,30.09,NW,314,0.0,0.0,90,0.00,,,0.00,weatherlink.com 1.10,2013-03-12 06:29:00,
2013-03-12 01:44:00,38.5,36.0,30.08,NW,313,0.0,0.0,91,0.00,,,0.00,weatherlink.com 1.10,2013-03-12 06:44:00,
2013-03-12 01:59:00,38.4,36.0,30.09,NW,313,0.0,0.0,92,0.00,,,0.00,weatherlink.com 1.10,2013-03-12 06:59:00,
2013-03-12 02:14:00,39.2,37.0,30.09,NW,314,0.0,0.0,93,0.00,,,0.00,weatherlink.com 1.10,2013-03-12 07:14:00,
2013-03-12 02:29:00,39.3,37.0,30.09,NW,313,0.0,0.0,92,0.00,,,0.00,weatherlink.com 1.10,2013-03-12 07:29:00,
2013-03-12 02:44:00,39.1,37.0,30.09,NW,314,0.0,0.0,93,0.00,,,0.00,weatherlink.com 1.10,2013-03-12 07:44:00,
2013-03-12 02:59:00,39.2,37.0,30.10,NW,314,0.0,1.0,93,0.00,,,0.00,weatherlink.com 1.10,2013-03-12 07:59:00,
2013-03-12 03:14:00,39.5,37.0,30.09,NW,314,0.0,0.0,92,0.00,,,0.00,weatherlink.com 1.10,2013-03-12 08:14:00,
2013-03-12 03:29:00,38.9,37.0,30.09,NW,313,0.0,0.0,92,0.00,,,0.00,weatherlink.com 1.10,2013-03-12 08:29:00,
2013-03-12 03:44:00,39.1,37.0,30.09,NW,313,0.0,0.0,93,0.00,,,0.00,weatherlink.com 1.10,2013-03-12 08:44:00,
2013-03-12 03:59:00,38.6,37.0,30.09,NW,314,0.0,0.0,92,0.00,,,0.00,weatherlink.com 1.10,2013-03-12 08:59:00,
2013-03-12 04:14:00,38.3,36.0,30.09,NW,313,0.0,0.0,92,0.00,,,0.00,weatherlink.com 1.10,2013-03-12 09:14:00,
2013-03-12 04:29:00,37.6,36.0,30.09,NW,313,0.0,0.0,92,0.00,,,0.00,weatherlink.com 1.10,2013-03-12 09:29:00,
2013-03-12 04:44:00,37.2,35.0,30.09,NW,313,0.0,0.0,92,0.00,,,0.00,weatherlink.com 1.10,2013-03-12 09:44:00,
2013-03-12 04:59:00,37.1,35.0,30.09,NW,313,0.0,0.0,93,0.00,,,0.00,weatherlink.com 1.10,2013-03-12 09:59:00,
2013-03-12 05:14:00,36.9,35.0,30.09,NW,314,0.0,0.0,93,0.00,,,0.00,weatherlink.com 1.10,2013-03-12 10:14:00,
2013-03-12 05:29:00,36.4,35.0,30.08,NW,314,0.0,0.0,93,0.00,,,0.00,weatherlink.com 1.10,2013-03-12 10:29:00,
2013-03-12 05:44:00,35.9,34.0,30.09,NW,314,0.0,0.0,93,0.00,,,0.00,weatherlink.com 1.10,2013-03-12 10:44:00,
2013-03-12 10:55:00,56.5,36.0,30.20,East,93,5.0,8.0,46,0.00,,,0.00,weatherlink.com 1.10,2013-03-12 15:55:00,
2013-03-12 11:00:00,56.9,35.0,30.20,East,91,3.0,7.0,44,0.00,,,0.00,weatherlink.com 1.10,2013-03-12 16:00:00,
2013-03-12 11:15:00,57.8,36.0,30.20,East,91,2.0,6.0,44,0.00,,,0.00,weatherlink.com 1.10,2013-03-12 16:15:00,
2013-03-12 11:30:00,59.0,35.0,30.21,East,101,6.0,7.0,41,0.00,,,0.00,weatherlink.com 1.10,2013-03-12 16:30:00,
2013-03-12 11:45:00,59.5,36.0,30.21,East,94,6.0,7.0,41,0.00,,,0.00,weatherlink.com 1.10,2013-03-12 16:45:00,
2013-03-12 12:00:00,60.1,36.0,30.21,NNW,328,2.0,7.0,40,0.00,,,0.00,weatherlink.com 1.10,2013-03-12 17:00:00,
2013-03-12 12:15:00,60.8,36.0,30.21,South,190,1.0,6.0,40,0.00,,,0.00,weatherlink.com 1.10,2013-03-12 17:15:00,
2013-03-12 12:30:00,62.3,34.0,30.21,NE,41,3.0,7.0,35,0.00,,,0.00,weatherlink.com 1.10,2013-03-12 17:30:00,
2013-03-12 12:45:00,63.2,36.0,30.21,WNW,287,0.0,3.0,36,0.00,,,0.00,weatherlink.com 1.10,2013-03-12 17:45:00,
2013-03-12 13:00:00,63.4,36.0,30.20,East,88,4.0,6.0,36,0.00,,,0.00,weatherlink.com 1.10,2013-03-12 18:00:00,
2013-03-12 13:15:00,65.0,36.0,30.20,SE,142,2.0,4.0,34,0.00,,,0.00,weatherlink.com 1.10,2013-03-12 18:15:00,
2013-03-12 13:30:00,65.0,35.0,30.19,ESE,102,1.0,5.0,33,0.00,,,0.00,weatherlink.com 1.10,2013-03-12 18:30:00,
2013-03-12 13:45:00,65.6,36.0,30.18,WNW,290,1.0,8.0,33,0.00,,,0.00,weatherlink.com 1.10,2013-03-12 18:45:00,
2013-03-12 14:00:00,65.7,34.0,30.17,East,98,0.0,4.0,31,0.00,,,0.00,weatherlink.com 1.10,2013-03-12 19:00:00,
2013-03-12 14:15:00,65.9,35.0,30.17,WNW,283,2.0,4.0,32,0.00,,,0.00,weatherlink.com 1.10,2013-03-12 19:15:00,
2013-03-12 14:30:00,67.1,35.0,30.16,ENE,71,1.0,6.0,30,0.00,,,0.00,weatherlink.com 1.10,2013-03-12 19:30:00,
2013-03-12 14:45:00,68.0,36.0,30.15,NE,35,0.0,6.0,31,0.00,,,0.00,weatherlink.com 1.10,2013-03-12 19:45:00,
2013-03-12 15:00:00,68.3,38.0,30.15,North,353,2.0,4.0,33,0.00,,,0.00,weatherlink.com 1.10,2013-03-12 20:00:00,
2013-03-12 15:15:00,67.6,37.0,30.15,NNE,20,0.0,6.0,32,0.00,,,0.00,weatherlink.com 1.10,2013-03-12 20:15:00,
2013-03-12 15:30:00,67.5,38.0,30.14,NE,49,5.0,7.0,34,0.00,,,0.00,weatherlink.com 1.10,2013-03-12 20:30:00,
2013-03-12 15:45:00,68.7,37.0,30.14,NW,322,2.0,9.0,31,0.00,,,0.00,weatherlink.com 1.10,2013-03-12 20:45:00,
2013-03-12 16:00:00,68.1,39.0,30.13,NNW,328,2.0,6.0,34,0.00,,,0.00,weatherlink.com 1.10,2013-03-12 21:00:00,
2013-03-12 16:15:00,68.4,37.0,30.12,North,355,1.0,6.0,32,0.00,,,0.00,weatherlink.com 1.10,2013-03-12 21:15:00,
2013-03-12 16:30:00,68.7,37.0,30.13,WNW,284,1.0,6.0,31,0.00,,,0.00,weatherlink.com 1.10,2013-03-12 21:30:00,
2013-03-12 16:45:00,69.8,39.0,30.12,WNW,300,0.0,5.0,32,0.00,,,0.00,weatherlink.com 1.10,2013-03-12 21:45:00,
2013-03-12 17:01:00,70.5,38.0,30.12,NNE,16,1.0,3.0,30,0.00,,,0.00,weatherlink.com 1.10,2013-03-12 22:01:00,
2013-03-12 17:16:00,69.7,36.0,30.12,NW,318,4.0,6.0,29,0.00,,,0.00,weatherlink.com 1.10,2013-03-12 22:16:00,
2013-03-12 17:31:00,70.5,38.0,30.12,NNE,30,0.0,3.0,30,0.00,,,0.00,weatherlink.com 1.10,2013-03-12 22:31:00,
2013-03-12 17:46:00,70.0,37.0,30.13,NW,316,1.0,7.0,30,0.00,,,0.00,weatherlink.com 1.10,2013-03-12 22:46:00,
2013-03-12 18:01:00,69.7,36.0,30.13,NW,311,2.0,4.0,29,0.00,,,0.00,weatherlink.com 1.10,2013-03-12 23:01:00,
2013-03-12 18:16:00,70.5,37.0,30.13,NE,51,2.0,3.0,29,0.00,,,0.00,weatherlink.com 1.10,2013-03-12 23:16:00,
2013-03-12 18:31:00,70.6,38.0,30.13,ENE,60,0.0,2.0,30,0.00,,,0.00,weatherlink.com 1.10,2013-03-12 23:31:00,
2013-03-12 18:46:00,69.6,41.0,30.14,SSW,197,0.0,4.0,36,0.00,,,0.00,weatherlink.com 1.10,2013-03-12 23:46:00,
2013-03-12 19:01:00,65.6,42.0,30.15,East,98,4.0,4.0,42,0.00,,,0.00,weatherlink.com 1.10,2013-03-13 00:01:00,
2013-03-12 19:16:00,63.0,42.0,30.16,SSE,155,3.0,3.0,46,0.00,,,0.00,weatherlink.com 1.10,2013-03-13 00:16:00,
2013-03-12 19:31:00,61.3,42.0,30.16,SSE,150,1.0,2.0,50,0.00,,,0.00,weatherlink.com 1.10,2013-03-13 00:31:00,
2013-03-12 19:46:00,59.7,43.0,30.17,SSE,153,0.0,1.0,54,0.00,,,0.00,weatherlink.com 1.10,2013-03-13 00:46:00,
2013-03-12 20:01:00,57.6,42.0,30.18,SSE,154,0.0,0.0,57,0.00,,,0.00,weatherlink.com 1.10,2013-03-13 01:01:00,
2013-03-12 20:16:00,57.0,45.0,30.18,WNW,285,0.0,1.0,65,0.00,,,0.00,weatherlink.com 1.10,2013-03-13 01:16:00,
2013-03-12 20:46:00,54.7,47.0,30.19,West,267,0.0,0.0,74,0.00,,,0.00,weatherlink.com 1.10,2013-03-13 01:46:00,
2013-03-12 21:01:00,53.8,46.0,30.20,West,267,0.0,0.0,76,0.00,,,0.00,weatherlink.com 1.10,2013-03-13 02:01:00,
2013-03-12 21:16:00,52.4,46.0,30.20,West,266,0.0,0.0,79,0.00,,,0.00,weatherlink.com 1.10,2013-03-13 02:16:00,
2013-03-12 21:46:00,50.3,46.0,30.20,West,267,0.0,0.0,84,0.00,,,0.00,weatherlink.com 1.10,2013-03-13 02:46:00,
2013-03-12 22:01:00,50.4,46.0,30.21,West,269,0.0,0.0,86,0.00,,,0.00,weatherlink.com 1.10,2013-03-13 03:01:00,
2013-03-12 22:16:00,50.9,46.0,30.22,West,269,0.0,0.0,83,0.00,,,0.00,weatherlink.com 1.10,2013-03-13 03:16:00,
2013-03-12 22:46:00,48.8,45.0,30.23,West,269,0.0,0.0,86,0.00,,,0.00,weatherlink.com 1.10,2013-03-13 03:46:00,
2013-03-12 23:01:00,48.1,45.0,30.24,West,269,0.0,0.0,88,0.00,,,0.00,weatherlink.com 1.10,2013-03-13 04:01:00,
2013-03-12 23:16:00,47.0,44.0,30.25,West,269,0.0,0.0,89,0.00,,,0.00,weatherlink.com 1.10,2013-03-13 04:16:00,
2013-03-12 23:31:00,46.7,44.0,30.25,West,269,0.0,0.0,90,0.00,,,0.00,weatherlink.com 1.10,2013-03-13 04:31:00,
2013-03-12 23:46:00,46.5,44.0,30.25,West,269,0.0,0.0,90,0.00,,,0.00,weatherlink.com 1.10,2013-03-13 04:46:00,